sensor_id;sensor_type;location;lat;lon;timestamp;P1;durP1;ratioP1;P2;durP2;ratioP2
52868;SDS011;39100;53.480;6.158;2022-12-10T00:01:46;24.48;;;11.77;;
52868;SDS011;39100;53.480;6.158;2022-12-10T00:04:13;26.73;;;12.60;;
52868;SDS011;39100;53.480;6.158;2022-12-10T00:06:40;24.90;;;12.02;;
52868;SDS011;39100;53.480;6.158;2022-12-10T00:09:11;28.25;;;12.25;;
52868;SDS011;39100;53.480;6.158;2022-12-10T00:11:39;26.38;;;12.45;;
52868;SDS011;39100;53.480;6.158;2022-12-10T00:14:05;32.13;;;13.50;;
52868;SDS011;39100;53.480;6.158;2022-12-10T00:16:34;27.23;;;13.50;;
52868;SDS011;39100;53.480;6.158;2022-12-10T00:19:00;24.20;;;12.18;;
52868;SDS011;39100;53.480;6.158;2022-12-10T00:21:27;30.88;;;12.88;;
52868;SDS011;39100;53.480;6.158;2022-12-10T00:23:57;30.38;;;14.70;;
52868;SDS011;39100;53.480;6.158;2022-12-10T00:26:27;32.00;;;14.23;;
52868;SDS011;39100;53.480;6.158;2022-12-10T00:28:55;31.25;;;12.73;;
52868;SDS011;39100;53.480;6.158;2022-12-10T00:31:23;25.98;;;12.00;;
52868;SDS011;39100;53.480;6.158;2022-12-10T00:33:53;26.83;;;13.50;;
52868;SDS011;39100;53.480;6.158;2022-12-10T00:36:21;26.27;;;11.52;;
52868;SDS011;39100;53.480;6.158;2022-12-10T00:38:49;27.70;;;12.77;;
52868;SDS011;39100;53.480;6.158;2022-12-10T00:41:16;27.13;;;12.60;;
52868;SDS011;39100;53.480;6.158;2022-12-10T00:43:42;26.00;;;12.68;;
52868;SDS011;39100;53.480;6.158;2022-12-10T00:46:08;24.98;;;11.82;;
52868;SDS011;39100;53.480;6.158;2022-12-10T00:48:34;27.15;;;11.85;;
52868;SDS011;39100;53.480;6.158;2022-12-10T00:51:01;30.98;;;13.43;;
52868;SDS011;39100;53.480;6.158;2022-12-10T00:53:30;28.83;;;12.23;;
52868;SDS011;39100;53.480;6.158;2022-12-10T00:55:58;30.95;;;14.48;;
52868;SDS011;39100;53.480;6.158;2022-12-10T00:58:26;26.77;;;13.68;;
52868;SDS011;39100;53.480;6.158;2022-12-10T01:00:52;30.13;;;13.07;;
52868;SDS011;39100;53.480;6.158;2022-12-10T01:03:18;24.98;;;12.07;;
52868;SDS011;39100;53.480;6.158;2022-12-10T01:05:43;26.23;;;12.15;;
52868;SDS011;39100;53.480;6.158;2022-12-10T01:08:09;31.00;;;13.20;;
52868;SDS011;39100;53.480;6.158;2022-12-10T01:10:35;26.55;;;12.23;;
52868;SDS011;39100;53.480;6.158;2022-12-10T01:13:01;29.45;;;13.50;;
52868;SDS011;39100;53.480;6.158;2022-12-10T01:15:27;28.08;;;12.23;;
52868;SDS011;39100;53.480;6.158;2022-12-10T01:17:52;28.98;;;13.05;;
52868;SDS011;39100;53.480;6.158;2022-12-10T01:20:18;29.35;;;12.68;;
52868;SDS011;39100;53.480;6.158;2022-12-10T01:22:43;30.25;;;12.63;;
52868;SDS011;39100;53.480;6.158;2022-12-10T01:25:09;23.58;;;10.52;;
52868;SDS011;39100;53.480;6.158;2022-12-10T01:27:34;24.88;;;10.93;;
52868;SDS011;39100;53.480;6.158;2022-12-10T01:30:00;22.55;;;10.90;;
52868;SDS011;39100;53.480;6.158;2022-12-10T01:32:25;26.80;;;11.13;;
52868;SDS011;39100;53.480;6.158;2022-12-10T01:34:51;20.85;;;10.82;;
52868;SDS011;39100;53.480;6.158;2022-12-10T01:37:17;25.23;;;11.30;;
52868;SDS011;39100;53.480;6.158;2022-12-10T01:39:42;22.70;;;10.23;;
52868;SDS011;39100;53.480;6.158;2022-12-10T01:42:12;24.08;;;10.60;;
52868;SDS011;39100;53.480;6.158;2022-12-10T01:47:06;25.38;;;10.52;;
52868;SDS011;39100;53.480;6.158;2022-12-10T01:49:37;25.65;;;10.50;;
52868;SDS011;39100;53.480;6.158;2022-12-10T01:52:05;21.17;;;9.63;;
52868;SDS011;39100;53.480;6.158;2022-12-10T01:54:34;24.17;;;11.38;;
52868;SDS011;39100;53.480;6.158;2022-12-10T01:57:06;22.52;;;10.02;;
52868;SDS011;39100;53.480;6.158;2022-12-10T01:59:36;25.02;;;10.85;;
52868;SDS011;39100;53.480;6.158;2022-12-10T02:05:07;28.20;;;12.10;;
52868;SDS011;39100;53.480;6.158;2022-12-10T02:07:39;29.27;;;11.52;;
52868;SDS011;39100;53.480;6.158;2022-12-10T02:10:19;25.88;;;10.88;;
52868;SDS011;39100;53.480;6.158;2022-12-10T02:21:16;26.77;;;11.05;;
52868;SDS011;39100;53.480;6.158;2022-12-10T02:23:54;24.83;;;10.10;;
52868;SDS011;39100;53.480;6.158;2022-12-10T02:26:24;28.00;;;11.82;;
52868;SDS011;39100;53.480;6.158;2022-12-10T02:31:45;27.75;;;11.82;;
52868;SDS011;39100;53.480;6.158;2022-12-10T02:34:14;29.20;;;12.38;;
52868;SDS011;39100;53.480;6.158;2022-12-10T02:36:43;39.42;;;15.45;;
52868;SDS011;39100;53.480;6.158;2022-12-10T02:39:12;32.33;;;13.85;;
52868;SDS011;39100;53.480;6.158;2022-12-10T02:41:47;31.70;;;12.38;;
52868;SDS011;39100;53.480;6.158;2022-12-10T02:44:18;36.65;;;14.38;;
52868;SDS011;39100;53.480;6.158;2022-12-10T02:46:47;33.15;;;15.13;;
52868;SDS011;39100;53.480;6.158;2022-12-10T02:49:17;42.45;;;15.88;;
52868;SDS011;39100;53.480;6.158;2022-12-10T02:51:43;32.40;;;13.75;;
52868;SDS011;39100;53.480;6.158;2022-12-10T02:57:09;37.03;;;14.15;;
52868;SDS011;39100;53.480;6.158;2022-12-10T03:00:30;33.58;;;14.32;;
52868;SDS011;39100;53.480;6.158;2022-12-10T03:08:26;38.75;;;16.08;;
52868;SDS011;39100;53.480;6.158;2022-12-10T03:13:36;35.60;;;14.32;;
52868;SDS011;39100;53.480;6.158;2022-12-10T03:16:05;30.77;;;14.27;;
52868;SDS011;39100;53.480;6.158;2022-12-10T03:18:34;29.60;;;12.98;;
52868;SDS011;39100;53.480;6.158;2022-12-10T03:21:03;29.00;;;13.88;;
52868;SDS011;39100;53.480;6.158;2022-12-10T03:23:30;32.92;;;13.80;;
52868;SDS011;39100;53.480;6.158;2022-12-10T03:25:59;31.25;;;12.85;;
52868;SDS011;39100;53.480;6.158;2022-12-10T03:28:26;30.35;;;13.20;;
52868;SDS011;39100;53.480;6.158;2022-12-10T03:30:56;31.73;;;13.43;;
52868;SDS011;39100;53.480;6.158;2022-12-10T03:33:22;29.55;;;13.70;;
52868;SDS011;39100;53.480;6.158;2022-12-10T03:35:48;26.30;;;11.68;;
52868;SDS011;39100;53.480;6.158;2022-12-10T03:38:15;28.83;;;11.98;;
52868;SDS011;39100;53.480;6.158;2022-12-10T03:40:41;29.10;;;13.25;;
52868;SDS011;39100;53.480;6.158;2022-12-10T03:43:07;25.02;;;12.10;;
52868;SDS011;39100;53.480;6.158;2022-12-10T03:45:32;26.95;;;12.70;;
52868;SDS011;39100;53.480;6.158;2022-12-10T03:47:58;29.65;;;13.20;;
52868;SDS011;39100;53.480;6.158;2022-12-10T03:50:23;31.27;;;13.68;;
52868;SDS011;39100;53.480;6.158;2022-12-10T03:52:49;28.63;;;12.38;;
52868;SDS011;39100;53.480;6.158;2022-12-10T03:55:15;30.70;;;13.45;;
52868;SDS011;39100;53.480;6.158;2022-12-10T03:57:41;30.08;;;13.15;;
52868;SDS011;39100;53.480;6.158;2022-12-10T04:00:07;30.88;;;13.00;;
52868;SDS011;39100;53.480;6.158;2022-12-10T04:02:33;29.38;;;12.90;;
52868;SDS011;39100;53.480;6.158;2022-12-10T04:04:58;31.52;;;13.55;;
52868;SDS011;39100;53.480;6.158;2022-12-10T04:07:24;26.95;;;12.20;;
52868;SDS011;39100;53.480;6.158;2022-12-10T04:09:49;30.35;;;13.38;;
52868;SDS011;39100;53.480;6.158;2022-12-10T04:12:15;29.30;;;12.80;;
52868;SDS011;39100;53.480;6.158;2022-12-10T04:14:41;31.80;;;14.05;;
52868;SDS011;39100;53.480;6.158;2022-12-10T04:17:25;30.27;;;13.90;;
52868;SDS011;39100;53.480;6.158;2022-12-10T04:19:50;34.38;;;14.57;;
52868;SDS011;39100;53.480;6.158;2022-12-10T04:22:16;28.48;;;12.27;;
52868;SDS011;39100;53.480;6.158;2022-12-10T04:25:00;26.75;;;12.77;;
52868;SDS011;39100;53.480;6.158;2022-12-10T04:27:44;30.60;;;13.07;;
52868;SDS011;39100;53.480;6.158;2022-12-10T04:30:10;28.40;;;12.98;;
52868;SDS011;39100;53.480;6.158;2022-12-10T04:32:37;30.52;;;13.63;;
52868;SDS011;39100;53.480;6.158;2022-12-10T04:35:02;25.77;;;13.48;;
52868;SDS011;39100;53.480;6.158;2022-12-10T04:37:28;28.13;;;12.73;;
52868;SDS011;39100;53.480;6.158;2022-12-10T04:39:54;26.45;;;12.65;;
52868;SDS011;39100;53.480;6.158;2022-12-10T04:42:20;27.15;;;11.95;;
52868;SDS011;39100;53.480;6.158;2022-12-10T04:44:47;23.55;;;11.70;;
52868;SDS011;39100;53.480;6.158;2022-12-10T04:47:12;24.30;;;11.57;;
52868;SDS011;39100;53.480;6.158;2022-12-10T04:49:38;28.10;;;12.93;;
52868;SDS011;39100;53.480;6.158;2022-12-10T04:52:05;26.35;;;12.70;;
52868;SDS011;39100;53.480;6.158;2022-12-10T04:54:32;25.13;;;12.32;;
52868;SDS011;39100;53.480;6.158;2022-12-10T04:56:58;26.90;;;12.38;;
52868;SDS011;39100;53.480;6.158;2022-12-10T04:59:23;24.88;;;11.40;;
52868;SDS011;39100;53.480;6.158;2022-12-10T05:01:49;22.48;;;11.18;;
52868;SDS011;39100;53.480;6.158;2022-12-10T05:04:16;22.73;;;11.20;;
52868;SDS011;39100;53.480;6.158;2022-12-10T05:06:42;26.63;;;11.15;;
52868;SDS011;39100;53.480;6.158;2022-12-10T05:09:10;24.55;;;11.05;;
52868;SDS011;39100;53.480;6.158;2022-12-10T05:11:36;23.65;;;11.35;;
52868;SDS011;39100;53.480;6.158;2022-12-10T05:14:02;26.80;;;12.82;;
52868;SDS011;39100;53.480;6.158;2022-12-10T05:16:29;24.85;;;10.98;;
52868;SDS011;39100;53.480;6.158;2022-12-10T05:18:57;22.30;;;10.48;;
52868;SDS011;39100;53.480;6.158;2022-12-10T05:21:24;23.50;;;12.07;;
52868;SDS011;39100;53.480;6.158;2022-12-10T05:24:11;26.70;;;11.43;;
52868;SDS011;39100;53.480;6.158;2022-12-10T05:26:38;25.13;;;10.95;;
52868;SDS011;39100;53.480;6.158;2022-12-10T05:29:03;26.08;;;11.02;;
52868;SDS011;39100;53.480;6.158;2022-12-10T05:31:29;21.05;;;10.43;;
52868;SDS011;39100;53.480;6.158;2022-12-10T05:33:55;26.13;;;11.48;;
52868;SDS011;39100;53.480;6.158;2022-12-10T05:36:24;24.27;;;11.32;;
52868;SDS011;39100;53.480;6.158;2022-12-10T05:38:51;20.17;;;9.90;;
52868;SDS011;39100;53.480;6.158;2022-12-10T05:41:19;22.80;;;10.93;;
52868;SDS011;39100;53.480;6.158;2022-12-10T05:43:47;20.77;;;10.02;;
52868;SDS011;39100;53.480;6.158;2022-12-10T05:46:14;21.83;;;10.80;;
52868;SDS011;39100;53.480;6.158;2022-12-10T05:48:41;24.77;;;11.40;;
52868;SDS011;39100;53.480;6.158;2022-12-10T05:51:16;25.15;;;10.98;;
52868;SDS011;39100;53.480;6.158;2022-12-10T05:53:44;21.00;;;9.88;;
52868;SDS011;39100;53.480;6.158;2022-12-10T05:56:14;20.83;;;9.32;;
52868;SDS011;39100;53.480;6.158;2022-12-10T05:58:42;19.80;;;9.10;;
52868;SDS011;39100;53.480;6.158;2022-12-10T06:01:09;20.48;;;9.90;;
52868;SDS011;39100;53.480;6.158;2022-12-10T06:03:40;20.13;;;9.17;;
52868;SDS011;39100;53.480;6.158;2022-12-10T06:06:05;17.27;;;8.88;;
52868;SDS011;39100;53.480;6.158;2022-12-10T06:08:32;18.83;;;8.48;;
52868;SDS011;39100;53.480;6.158;2022-12-10T06:11:02;17.98;;;8.43;;
52868;SDS011;39100;53.480;6.158;2022-12-10T06:13:28;22.73;;;10.20;;
52868;SDS011;39100;53.480;6.158;2022-12-10T06:15:54;20.55;;;9.57;;
52868;SDS011;39100;53.480;6.158;2022-12-10T06:18:20;18.73;;;9.60;;
52868;SDS011;39100;53.480;6.158;2022-12-10T06:20:46;18.50;;;8.93;;
52868;SDS011;39100;53.480;6.158;2022-12-10T06:23:11;18.55;;;9.00;;
52868;SDS011;39100;53.480;6.158;2022-12-10T06:25:37;18.45;;;8.98;;
52868;SDS011;39100;53.480;6.158;2022-12-10T06:28:03;18.52;;;8.60;;
52868;SDS011;39100;53.480;6.158;2022-12-10T06:30:29;21.75;;;9.98;;
52868;SDS011;39100;53.480;6.158;2022-12-10T06:32:55;19.25;;;8.98;;
52868;SDS011;39100;53.480;6.158;2022-12-10T06:35:21;18.65;;;9.70;;
52868;SDS011;39100;53.480;6.158;2022-12-10T06:37:46;18.80;;;9.43;;
52868;SDS011;39100;53.480;6.158;2022-12-10T06:40:13;19.65;;;9.00;;
52868;SDS011;39100;53.480;6.158;2022-12-10T06:42:38;20.50;;;9.32;;
52868;SDS011;39100;53.480;6.158;2022-12-10T06:45:04;20.15;;;10.23;;
52868;SDS011;39100;53.480;6.158;2022-12-10T06:47:30;19.23;;;8.25;;
52868;SDS011;39100;53.480;6.158;2022-12-10T06:49:56;18.67;;;8.60;;
52868;SDS011;39100;53.480;6.158;2022-12-10T06:52:21;19.48;;;9.07;;
52868;SDS011;39100;53.480;6.158;2022-12-10T06:54:47;17.98;;;8.88;;
52868;SDS011;39100;53.480;6.158;2022-12-10T06:57:13;19.05;;;9.98;;
52868;SDS011;39100;53.480;6.158;2022-12-10T06:59:38;17.90;;;7.55;;
52868;SDS011;39100;53.480;6.158;2022-12-10T07:02:04;16.38;;;7.28;;
52868;SDS011;39100;53.480;6.158;2022-12-10T07:04:30;15.00;;;7.80;;
52868;SDS011;39100;53.480;6.158;2022-12-10T07:06:55;18.38;;;8.52;;
52868;SDS011;39100;53.480;6.158;2022-12-10T07:09:21;18.70;;;8.77;;
52868;SDS011;39100;53.480;6.158;2022-12-10T07:11:46;17.50;;;7.82;;
52868;SDS011;39100;53.480;6.158;2022-12-10T07:14:13;17.35;;;8.20;;
52868;SDS011;39100;53.480;6.158;2022-12-10T07:16:40;15.30;;;6.88;;
52868;SDS011;39100;53.480;6.158;2022-12-10T07:19:07;16.30;;;7.32;;
52868;SDS011;39100;53.480;6.158;2022-12-10T07:21:35;12.75;;;6.53;;
52868;SDS011;39100;53.480;6.158;2022-12-10T07:24:06;15.65;;;7.20;;
52868;SDS011;39100;53.480;6.158;2022-12-10T07:26:34;14.93;;;7.50;;
52868;SDS011;39100;53.480;6.158;2022-12-10T07:29:02;16.25;;;6.35;;
52868;SDS011;39100;53.480;6.158;2022-12-10T07:31:29;12.15;;;6.30;;
52868;SDS011;39100;53.480;6.158;2022-12-10T07:33:57;12.85;;;5.85;;
52868;SDS011;39100;53.480;6.158;2022-12-10T07:36:23;13.70;;;6.47;;
52868;SDS011;39100;53.480;6.158;2022-12-10T07:38:50;14.32;;;6.70;;
52868;SDS011;39100;53.480;6.158;2022-12-10T07:41:16;14.52;;;7.50;;
52868;SDS011;39100;53.480;6.158;2022-12-10T07:43:42;13.63;;;6.13;;
52868;SDS011;39100;53.480;6.158;2022-12-10T07:46:13;13.10;;;5.95;;
52868;SDS011;39100;53.480;6.158;2022-12-10T07:48:40;10.90;;;5.20;;
52868;SDS011;39100;53.480;6.158;2022-12-10T07:51:06;14.25;;;6.82;;
52868;SDS011;39100;53.480;6.158;2022-12-10T07:53:33;12.98;;;6.38;;
52868;SDS011;39100;53.480;6.158;2022-12-10T07:55:59;10.98;;;6.22;;
52868;SDS011;39100;53.480;6.158;2022-12-10T07:58:25;14.23;;;6.47;;
52868;SDS011;39100;53.480;6.158;2022-12-10T08:00:50;14.57;;;6.97;;
52868;SDS011;39100;53.480;6.158;2022-12-10T08:03:16;11.43;;;5.85;;
52868;SDS011;39100;53.480;6.158;2022-12-10T08:05:42;15.77;;;7.22;;
52868;SDS011;39100;53.480;6.158;2022-12-10T08:08:07;12.73;;;6.32;;
52868;SDS011;39100;53.480;6.158;2022-12-10T08:10:37;12.40;;;6.05;;
52868;SDS011;39100;53.480;6.158;2022-12-10T08:13:03;12.68;;;6.45;;
52868;SDS011;39100;53.480;6.158;2022-12-10T08:15:30;13.90;;;6.68;;
52868;SDS011;39100;53.480;6.158;2022-12-10T08:17:55;11.77;;;5.70;;
52868;SDS011;39100;53.480;6.158;2022-12-10T08:20:21;14.63;;;6.38;;
52868;SDS011;39100;53.480;6.158;2022-12-10T08:22:48;12.48;;;7.03;;
52868;SDS011;39100;53.480;6.158;2022-12-10T08:25:14;15.70;;;7.35;;
52868;SDS011;39100;53.480;6.158;2022-12-10T08:27:39;13.18;;;6.78;;
52868;SDS011;39100;53.480;6.158;2022-12-10T08:30:05;13.70;;;6.25;;
52868;SDS011;39100;53.480;6.158;2022-12-10T08:32:31;15.27;;;7.57;;
52868;SDS011;39100;53.480;6.158;2022-12-10T08:34:57;13.00;;;6.32;;
52868;SDS011;39100;53.480;6.158;2022-12-10T08:37:22;12.65;;;6.80;;
52868;SDS011;39100;53.480;6.158;2022-12-10T08:39:48;10.75;;;5.03;;
52868;SDS011;39100;53.480;6.158;2022-12-10T08:42:13;14.38;;;6.78;;
52868;SDS011;39100;53.480;6.158;2022-12-10T08:44:39;12.27;;;5.50;;
52868;SDS011;39100;53.480;6.158;2022-12-10T08:47:05;11.57;;;5.80;;
52868;SDS011;39100;53.480;6.158;2022-12-10T08:49:31;13.70;;;5.93;;
52868;SDS011;39100;53.480;6.158;2022-12-10T08:51:56;13.73;;;6.22;;
52868;SDS011;39100;53.480;6.158;2022-12-10T08:54:22;14.57;;;6.68;;
52868;SDS011;39100;53.480;6.158;2022-12-10T08:56:48;15.60;;;6.65;;
52868;SDS011;39100;53.480;6.158;2022-12-10T08:59:13;17.17;;;6.53;;
52868;SDS011;39100;53.480;6.158;2022-12-10T09:01:39;13.27;;;6.13;;
52868;SDS011;39100;53.480;6.158;2022-12-10T09:04:04;14.13;;;5.90;;
52868;SDS011;39100;53.480;6.158;2022-12-10T09:06:30;14.70;;;7.03;;
52868;SDS011;39100;53.480;6.158;2022-12-10T09:08:56;15.45;;;6.32;;
52868;SDS011;39100;53.480;6.158;2022-12-10T09:11:23;15.15;;;7.28;;
52868;SDS011;39100;53.480;6.158;2022-12-10T09:13:50;19.35;;;7.43;;
52868;SDS011;39100;53.480;6.158;2022-12-10T09:16:16;18.77;;;6.68;;
52868;SDS011;39100;53.480;6.158;2022-12-10T09:18:42;16.30;;;6.50;;
52868;SDS011;39100;53.480;6.158;2022-12-10T09:21:09;17.38;;;6.38;;
52868;SDS011;39100;53.480;6.158;2022-12-10T09:23:37;15.15;;;6.32;;
52868;SDS011;39100;53.480;6.158;2022-12-10T09:26:07;19.30;;;7.22;;
52868;SDS011;39100;53.480;6.158;2022-12-10T09:28:34;14.90;;;6.93;;
52868;SDS011;39100;53.480;6.158;2022-12-10T09:31:01;19.65;;;7.82;;
52868;SDS011;39100;53.480;6.158;2022-12-10T09:33:31;22.20;;;8.85;;
52868;SDS011;39100;53.480;6.158;2022-12-10T09:35:57;16.77;;;7.25;;
52868;SDS011;39100;53.480;6.158;2022-12-10T09:38:23;17.08;;;6.53;;
52868;SDS011;39100;53.480;6.158;2022-12-10T09:41:02;15.65;;;6.63;;
52868;SDS011;39100;53.480;6.158;2022-12-10T09:43:49;16.42;;;7.20;;
52868;SDS011;39100;53.480;6.158;2022-12-10T09:46:33;15.75;;;6.68;;
52868;SDS011;39100;53.480;6.158;2022-12-10T09:49:22;14.77;;;6.50;;
52868;SDS011;39100;53.480;6.158;2022-12-10T09:52:03;18.80;;;7.05;;
52868;SDS011;39100;53.480;6.158;2022-12-10T09:54:32;20.13;;;6.65;;
52868;SDS011;39100;53.480;6.158;2022-12-10T09:56:59;15.23;;;6.65;;
52868;SDS011;39100;53.480;6.158;2022-12-10T10:04:48;18.75;;;7.45;;
52868;SDS011;39100;53.480;6.158;2022-12-10T10:07:22;15.95;;;6.82;;
52868;SDS011;39100;53.480;6.158;2022-12-10T10:09:50;21.60;;;7.28;;
52868;SDS011;39100;53.480;6.158;2022-12-10T10:12:20;18.23;;;7.53;;
52868;SDS011;39100;53.480;6.158;2022-12-10T10:14:45;14.02;;;5.97;;
52868;SDS011;39100;53.480;6.158;2022-12-10T10:17:19;15.90;;;6.78;;
52868;SDS011;39100;53.480;6.158;2022-12-10T10:19:48;18.92;;;8.05;;
52868;SDS011;39100;53.480;6.158;2022-12-10T10:22:14;16.80;;;6.35;;
52868;SDS011;39100;53.480;6.158;2022-12-10T10:24:41;14.63;;;6.28;;
52868;SDS011;39100;53.480;6.158;2022-12-10T10:29:41;15.88;;;5.95;;
52868;SDS011;39100;53.480;6.158;2022-12-10T10:32:13;16.65;;;6.22;;
52868;SDS011;39100;53.480;6.158;2022-12-10T10:34:43;12.88;;;5.70;;
52868;SDS011;39100;53.480;6.158;2022-12-10T10:37:18;14.82;;;6.53;;
52868;SDS011;39100;53.480;6.158;2022-12-10T10:39:47;16.33;;;6.88;;
52868;SDS011;39100;53.480;6.158;2022-12-10T10:42:20;15.35;;;7.18;;
52868;SDS011;39100;53.480;6.158;2022-12-10T10:48:04;14.23;;;5.78;;
52868;SDS011;39100;53.480;6.158;2022-12-10T10:53:24;16.48;;;6.03;;
52868;SDS011;39100;53.480;6.158;2022-12-10T10:55:56;14.98;;;6.10;;
52868;SDS011;39100;53.480;6.158;2022-12-10T10:58:24;13.45;;;5.88;;
52868;SDS011;39100;53.480;6.158;2022-12-10T11:00:54;13.18;;;6.22;;
52868;SDS011;39100;53.480;6.158;2022-12-10T11:03:24;15.25;;;6.82;;
52868;SDS011;39100;53.480;6.158;2022-12-10T11:05:51;16.17;;;6.65;;
52868;SDS011;39100;53.480;6.158;2022-12-10T11:08:17;14.48;;;7.13;;
52868;SDS011;39100;53.480;6.158;2022-12-10T11:10:49;14.90;;;6.53;;
52868;SDS011;39100;53.480;6.158;2022-12-10T11:15:45;16.88;;;6.70;;
52868;SDS011;39100;53.480;6.158;2022-12-10T11:18:40;18.08;;;7.35;;
52868;SDS011;39100;53.480;6.158;2022-12-10T11:23:41;16.00;;;6.78;;
52868;SDS011;39100;53.480;6.158;2022-12-10T11:35:02;13.32;;;6.45;;
52868;SDS011;39100;53.480;6.158;2022-12-10T11:37:42;13.23;;;6.63;;
52868;SDS011;39100;53.480;6.158;2022-12-10T11:40:43;19.67;;;7.10;;
52868;SDS011;39100;53.480;6.158;2022-12-10T11:51:40;14.77;;;6.10;;
52868;SDS011;39100;53.480;6.158;2022-12-10T11:59:54;15.07;;;6.53;;
52868;SDS011;39100;53.480;6.158;2022-12-10T12:05:32;15.13;;;7.03;;
52868;SDS011;39100;53.480;6.158;2022-12-10T12:08:42;13.57;;;6.40;;
52868;SDS011;39100;53.480;6.158;2022-12-10T12:14:26;16.90;;;7.15;;
52868;SDS011;39100;53.480;6.158;2022-12-10T12:17:39;15.15;;;6.50;;
52868;SDS011;39100;53.480;6.158;2022-12-10T12:19:47;14.88;;;5.60;;
52868;SDS011;39100;53.480;6.158;2022-12-10T12:22:24;16.42;;;6.70;;
52868;SDS011;39100;53.480;6.158;2022-12-10T12:24:54;14.13;;;5.90;;
52868;SDS011;39100;53.480;6.158;2022-12-10T12:27:30;14.05;;;6.53;;
52868;SDS011;39100;53.480;6.158;2022-12-10T12:30:05;14.38;;;5.97;;
52868;SDS011;39100;53.480;6.158;2022-12-10T12:35:17;18.35;;;7.88;;
52868;SDS011;39100;53.480;6.158;2022-12-10T12:37:56;17.45;;;6.95;;
52868;SDS011;39100;53.480;6.158;2022-12-10T12:40:27;17.88;;;7.20;;
52868;SDS011;39100;53.480;6.158;2022-12-10T12:42:57;17.33;;;7.28;;
52868;SDS011;39100;53.480;6.158;2022-12-10T12:45:45;15.05;;;6.72;;
52868;SDS011;39100;53.480;6.158;2022-12-10T12:51:03;18.40;;;7.60;;
52868;SDS011;39100;53.480;6.158;2022-12-10T12:53:44;14.02;;;6.65;;
52868;SDS011;39100;53.480;6.158;2022-12-10T12:58:50;18.52;;;7.55;;
52868;SDS011;39100;53.480;6.158;2022-12-10T13:04:27;16.90;;;6.43;;
52868;SDS011;39100;53.480;6.158;2022-12-10T13:07:09;16.73;;;7.63;;
52868;SDS011;39100;53.480;6.158;2022-12-10T13:09:42;18.55;;;7.47;;
52868;SDS011;39100;53.480;6.158;2022-12-10T13:12:28;16.40;;;7.57;;
52868;SDS011;39100;53.480;6.158;2022-12-10T13:17:27;17.35;;;7.40;;
52868;SDS011;39100;53.480;6.158;2022-12-10T13:23:04;18.67;;;7.95;;
52868;SDS011;39100;53.480;6.158;2022-12-10T13:31:33;21.42;;;9.07;;
52868;SDS011;39100;53.480;6.158;2022-12-10T13:39:22;16.85;;;7.43;;
52868;SDS011;39100;53.480;6.158;2022-12-10T13:47:41;15.38;;;6.90;;
52868;SDS011;39100;53.480;6.158;2022-12-10T13:52:59;16.40;;;6.20;;
52868;SDS011;39100;53.480;6.158;2022-12-10T13:58:58;14.23;;;5.97;;
52868;SDS011;39100;53.480;6.158;2022-12-10T14:01:20;15.55;;;6.47;;
52868;SDS011;39100;53.480;6.158;2022-12-10T14:03:58;13.80;;;6.40;;
52868;SDS011;39100;53.480;6.158;2022-12-10T14:06:45;16.10;;;6.80;;
52868;SDS011;39100;53.480;6.158;2022-12-10T14:09:24;17.13;;;7.15;;
52868;SDS011;39100;53.480;6.158;2022-12-10T14:11:57;15.65;;;7.05;;
52868;SDS011;39100;53.480;6.158;2022-12-10T14:14:36;16.25;;;7.43;;
52868;SDS011;39100;53.480;6.158;2022-12-10T14:17:18;13.25;;;5.28;;
52868;SDS011;39100;53.480;6.158;2022-12-10T14:19:46;8.60;;;3.97;;
52868;SDS011;39100;53.480;6.158;2022-12-10T14:22:16;11.20;;;4.70;;
52868;SDS011;39100;53.480;6.158;2022-12-10T14:24:45;15.82;;;6.47;;
52868;SDS011;39100;53.480;6.158;2022-12-10T14:29:48;14.38;;;6.22;;
52868;SDS011;39100;53.480;6.158;2022-12-10T14:32:17;14.20;;;6.25;;
52868;SDS011;39100;53.480;6.158;2022-12-10T14:35:14;10.98;;;6.22;;
52868;SDS011;39100;53.480;6.158;2022-12-10T14:37:43;13.68;;;6.30;;
52868;SDS011;39100;53.480;6.158;2022-12-10T14:40:18;17.30;;;7.65;;
52868;SDS011;39100;53.480;6.158;2022-12-10T14:42:50;11.50;;;5.90;;
52868;SDS011;39100;53.480;6.158;2022-12-10T14:45:20;16.90;;;7.53;;
52868;SDS011;39100;53.480;6.158;2022-12-10T14:47:45;18.40;;;8.35;;
52868;SDS011;39100;53.480;6.158;2022-12-10T14:50:13;16.83;;;7.70;;
52868;SDS011;39100;53.480;6.158;2022-12-10T14:52:41;14.23;;;6.95;;
52868;SDS011;39100;53.480;6.158;2022-12-10T14:55:12;17.60;;;7.25;;
52868;SDS011;39100;53.480;6.158;2022-12-10T14:57:40;14.68;;;7.15;;
52868;SDS011;39100;53.480;6.158;2022-12-10T15:02:40;14.82;;;7.63;;
52868;SDS011;39100;53.480;6.158;2022-12-10T15:05:12;13.63;;;6.97;;
52868;SDS011;39100;53.480;6.158;2022-12-10T15:07:44;15.85;;;6.93;;
52868;SDS011;39100;53.480;6.158;2022-12-10T15:10:20;12.05;;;5.72;;
52868;SDS011;39100;53.480;6.158;2022-12-10T15:12:59;17.27;;;7.93;;
52868;SDS011;39100;53.480;6.158;2022-12-10T15:15:29;26.58;;;9.80;;
52868;SDS011;39100;53.480;6.158;2022-12-10T15:18:12;24.92;;;9.68;;
52868;SDS011;39100;53.480;6.158;2022-12-10T15:25:46;29.27;;;10.75;;
52868;SDS011;39100;53.480;6.158;2022-12-10T15:31:19;19.88;;;9.70;;
52868;SDS011;39100;53.480;6.158;2022-12-10T15:33:55;19.13;;;8.68;;
52868;SDS011;39100;53.480;6.158;2022-12-10T15:39:15;22.35;;;9.25;;
52868;SDS011;39100;53.480;6.158;2022-12-10T15:44:26;23.52;;;10.18;;
52868;SDS011;39100;53.480;6.158;2022-12-10T15:49:32;26.48;;;10.82;;
52868;SDS011;39100;53.480;6.158;2022-12-10T15:51:57;25.35;;;10.45;;
52868;SDS011;39100;53.480;6.158;2022-12-10T15:54:27;23.60;;;10.18;;
52868;SDS011;39100;53.480;6.158;2022-12-10T15:56:55;23.55;;;10.48;;
52868;SDS011;39100;53.480;6.158;2022-12-10T15:59:20;24.25;;;9.85;;
52868;SDS011;39100;53.480;6.158;2022-12-10T16:01:46;24.00;;;9.38;;
52868;SDS011;39100;53.480;6.158;2022-12-10T16:04:12;24.02;;;10.02;;
52868;SDS011;39100;53.480;6.158;2022-12-10T16:06:38;23.15;;;10.77;;
52868;SDS011;39100;53.480;6.158;2022-12-10T16:09:04;22.23;;;8.55;;
52868;SDS011;39100;53.480;6.158;2022-12-10T16:11:30;19.33;;;9.40;;
52868;SDS011;39100;53.480;6.158;2022-12-10T16:13:56;20.45;;;9.00;;
52868;SDS011;39100;53.480;6.158;2022-12-10T16:16:22;20.60;;;8.43;;
52868;SDS011;39100;53.480;6.158;2022-12-10T16:18:48;23.67;;;9.40;;
52868;SDS011;39100;53.480;6.158;2022-12-10T16:21:14;19.25;;;8.60;;
52868;SDS011;39100;53.480;6.158;2022-12-10T16:23:40;21.27;;;9.70;;
52868;SDS011;39100;53.480;6.158;2022-12-10T16:26:11;18.80;;;8.63;;
52868;SDS011;39100;53.480;6.158;2022-12-10T16:28:39;22.85;;;9.68;;
52868;SDS011;39100;53.480;6.158;2022-12-10T16:31:07;18.08;;;8.65;;
52868;SDS011;39100;53.480;6.158;2022-12-10T16:33:37;24.17;;;9.82;;
52868;SDS011;39100;53.480;6.158;2022-12-10T16:36:02;26.30;;;10.95;;
52868;SDS011;39100;53.480;6.158;2022-12-10T16:38:28;21.25;;;9.30;;
52868;SDS011;39100;53.480;6.158;2022-12-10T16:40:54;17.42;;;8.48;;
52868;SDS011;39100;53.480;6.158;2022-12-10T16:43:21;20.08;;;8.35;;
52868;SDS011;39100;53.480;6.158;2022-12-10T16:45:48;19.65;;;8.13;;
52868;SDS011;39100;53.480;6.158;2022-12-10T16:48:14;22.20;;;9.43;;
52868;SDS011;39100;53.480;6.158;2022-12-10T16:50:40;21.52;;;9.10;;
52868;SDS011;39100;53.480;6.158;2022-12-10T16:56:02;21.30;;;9.10;;
52868;SDS011;39100;53.480;6.158;2022-12-10T16:58:29;24.50;;;10.15;;
52868;SDS011;39100;53.480;6.158;2022-12-10T17:00:55;33.50;;;11.57;;